createdAt,value
2018-08-09T00:01:27.467Z,11.15
2018-08-09T00:03:54.591Z,10.65
2018-08-09T00:06:21.646Z,11.40
2018-08-09T00:08:49.816Z,13.65
2018-08-09T00:11:16.871Z,12.65
2018-08-09T00:13:43.912Z,12.30
2018-08-09T00:16:11.174Z,12.85
2018-08-09T00:18:38.288Z,12.68
2018-08-09T00:21:05.367Z,14.23
2018-08-09T00:23:32.489Z,11.95
2018-08-09T00:25:59.565Z,13.10
2018-08-09T00:28:26.620Z,12.90
2018-08-09T00:30:53.969Z,11.52
2018-08-09T00:33:21.036Z,19.10
2018-08-09T00:35:48.170Z,15.07
2018-08-09T00:38:15.731Z,13.98
2018-08-09T00:40:42.781Z,13.48
2018-08-09T00:43:09.834Z,15.38
2018-08-09T00:45:36.985Z,12.93
2018-08-09T00:48:04.136Z,15.60
2018-08-09T00:50:31.182Z,12.68
2018-08-09T00:52:58.199Z,13.05
2018-08-09T00:55:25.687Z,13.90
2018-08-09T00:57:52.834Z,12.95
2018-08-09T01:00:19.892Z,12.73
2018-08-09T01:02:46.937Z,13.40
2018-08-09T01:05:14.085Z,13.13
2018-08-09T01:07:41.135Z,12.00
2018-08-09T01:10:08.187Z,11.68
2018-08-09T01:12:35.251Z,11.88
2018-08-09T01:15:02.279Z,12.23
2018-08-09T01:17:29.337Z,12.63
2018-08-09T01:19:56.376Z,11.75
2018-08-09T01:22:23.427Z,11.12
2018-08-09T01:24:50.478Z,13.10
2018-08-09T01:27:17.629Z,16.05
2018-08-09T01:29:44.678Z,12.85
2018-08-09T01:32:11.693Z,11.98
2018-08-09T01:34:39.898Z,11.30
2018-08-09T01:37:08.353Z,10.52
2018-08-09T01:39:35.427Z,13.73
2018-08-09T01:42:02.558Z,11.00
2018-08-09T01:44:29.626Z,11.20
2018-08-09T01:46:56.680Z,12.07
2018-08-09T01:49:23.725Z,14.73
2018-08-09T01:51:50.742Z,12.10
2018-08-09T01:54:17.828Z,12.48
2018-08-09T01:56:44.870Z,12.95
2018-08-09T01:59:11.924Z,12.32
2018-08-09T02:01:38.972Z,11.80
2018-08-09T02:04:06.016Z,12.45
2018-08-09T02:06:33.089Z,12.85
2018-08-09T02:09:00.232Z,13.10
2018-08-09T02:11:27.269Z,12.52
2018-08-09T02:13:54.621Z,11.82
2018-08-09T02:16:21.669Z,13.00
2018-08-09T02:18:48.731Z,13.10
2018-08-09T02:21:15.771Z,13.48
2018-08-09T02:23:42.820Z,12.65
2018-08-09T02:26:09.871Z,12.10
2018-08-09T02:28:36.915Z,13.38
2018-08-09T02:31:03.966Z,12.25
2018-08-09T02:33:31.017Z,12.48
2018-08-09T02:35:58.071Z,12.20
2018-08-09T02:38:25.106Z,12.30
2018-08-09T02:40:52.166Z,12.77
2018-08-09T02:43:19.204Z,12.65
2018-08-09T02:45:46.356Z,12.57
2018-08-09T02:48:13.509Z,16.23
2018-08-09T02:50:41.688Z,12.30
2018-08-09T02:53:08.734Z,12.60
2018-08-09T02:55:35.683Z,13.57
2018-08-09T02:58:02.833Z,16.37
2018-08-09T03:00:29.896Z,13.25
2018-08-09T03:02:56.926Z,12.73
2018-08-09T03:05:23.981Z,12.90
2018-08-09T03:07:52.148Z,12.85
2018-08-09T03:10:22.403Z,13.43
2018-08-09T03:12:53.312Z,12.43
2018-08-09T03:15:20.360Z,12.88
2018-08-09T03:17:47.413Z,12.10
2018-08-09T03:20:14.458Z,12.85
2018-08-09T03:22:41.505Z,12.65
2018-08-09T03:25:08.559Z,11.88
2018-08-09T03:27:35.602Z,13.23
2018-08-09T03:30:02.753Z,13.13
2018-08-09T03:32:29.804Z,13.73
2018-08-09T03:34:56.855Z,12.68
2018-08-09T03:37:23.900Z,12.57
2018-08-09T03:39:51.050Z,11.73
2018-08-09T03:42:18.103Z,12.45
2018-08-09T03:44:45.152Z,11.88
2018-08-09T03:47:12.302Z,12.45
2018-08-09T03:49:39.347Z,13.65
2018-08-09T03:52:06.396Z,18.55
2018-08-09T03:54:33.450Z,13.25
2018-08-09T03:57:00.491Z,13.43
2018-08-09T03:59:27.546Z,14.20
2018-08-09T04:01:54.795Z,13.60
2018-08-09T04:04:21.844Z,12.85
2018-08-09T04:06:48.900Z,14.35
2018-08-09T04:09:15.940Z,13.20
2018-08-09T04:11:43.002Z,14.75
2018-08-09T04:14:10.140Z,14.50
2018-08-09T04:16:37.203Z,13.13
2018-08-09T04:19:04.242Z,13.73
2018-08-09T04:21:31.286Z,15.13
2018-08-09T04:23:58.340Z,13.25
2018-08-09T04:26:25.412Z,13.93
2018-08-09T04:28:52.533Z,12.40
2018-08-09T04:31:19.686Z,12.63
2018-08-09T04:33:46.732Z,12.23
2018-08-09T04:36:13.792Z,12.10
2018-08-09T04:38:40.832Z,12.40
2018-08-09T04:41:07.982Z,14.55
2018-08-09T04:43:35.031Z,12.60
2018-08-09T04:46:02.085Z,12.45
2018-08-09T04:48:29.142Z,13.18
2018-08-09T04:50:56.282Z,13.02
2018-08-09T04:53:23.328Z,13.52
2018-08-09T04:55:50.381Z,13.30
2018-08-09T04:58:17.454Z,15.07
2018-08-09T05:00:44.576Z,14.25
2018-08-09T05:03:11.624Z,13.15
2018-08-09T05:05:38.775Z,13.68
2018-08-09T05:08:05.830Z,13.32
2018-08-09T05:10:32.985Z,13.52
2018-08-09T05:13:00.026Z,18.10
2018-08-09T05:15:27.799Z,14.48
2018-08-09T05:17:54.843Z,15.13
2018-08-09T05:20:21.893Z,15.27
2018-08-09T05:22:49.049Z,13.30
2018-08-09T05:25:16.083Z,14.70
2018-08-09T05:27:43.134Z,13.40
2018-08-09T05:30:10.558Z,15.02
2018-08-09T05:32:37.650Z,14.38
2018-08-09T05:35:05.582Z,13.23
2018-08-09T05:37:32.563Z,12.88
2018-08-09T05:39:59.606Z,13.32
2018-08-09T05:42:26.656Z,13.62
2018-08-09T05:44:53.712Z,13.20
2018-08-09T05:47:20.754Z,13.60
2018-08-09T05:49:47.801Z,12.63
2018-08-09T05:52:14.819Z,13.18
2018-08-09T05:54:42.076Z,13.13
2018-08-09T05:57:12.941Z,13.10
2018-08-09T05:59:39.995Z,12.15
2018-08-09T06:02:07.040Z,11.25
2018-08-09T06:04:34.087Z,12.93
2018-08-09T06:07:01.239Z,13.43
2018-08-09T06:09:28.291Z,12.90
2018-08-09T06:11:55.336Z,12.88
2018-08-09T06:14:22.384Z,13.15
2018-08-09T06:16:49.407Z,12.93
2018-08-09T06:19:16.481Z,12.80
2018-08-09T06:21:43.530Z,13.00
2018-08-09T06:24:10.583Z,12.73
2018-08-09T06:26:37.848Z,13.85
2018-08-09T06:29:06.422Z,12.95
2018-08-09T06:31:33.574Z,12.68
2018-08-09T06:34:03.366Z,15.77
2018-08-09T06:36:30.638Z,13.25
2018-08-09T06:38:57.682Z,13.20
2018-08-09T06:41:24.732Z,15.65
2018-08-09T06:43:51.784Z,15.07
2018-08-09T06:46:18.827Z,17.60
2018-08-09T06:48:45.877Z,14.10
2018-08-09T06:51:12.931Z,14.00
2018-08-09T06:53:39.974Z,14.80
2018-08-09T06:56:07.024Z,16.10
2018-08-09T06:58:34.275Z,16.67
2018-08-09T07:01:01.323Z,15.13
2018-08-09T07:03:28.475Z,16.48
2018-08-09T07:05:55.528Z,15.55
2018-08-09T07:08:22.680Z,16.30
2018-08-09T07:10:49.723Z,16.00
2018-08-09T07:13:16.877Z,16.08
2018-08-09T07:15:43.922Z,20.08
2018-08-09T07:18:11.487Z,16.08
2018-08-09T07:20:38.634Z,20.52
2018-08-09T07:23:05.669Z,20.45
2018-08-09T07:25:32.737Z,20.10
2018-08-09T07:27:59.887Z,18.55
2018-08-09T07:30:26.931Z,17.50
2018-08-09T07:32:53.979Z,16.75
2018-08-09T07:35:21.033Z,17.65
2018-08-09T07:37:48.077Z,20.17
2018-08-09T07:40:15.742Z,17.70
2018-08-09T07:42:42.793Z,19.08
2018-08-09T07:45:09.949Z,18.35
2018-08-09T07:47:36.988Z,18.40
2018-08-09T07:50:04.039Z,21.58
2018-08-09T07:52:31.153Z,20.00
2018-08-09T07:54:58.689Z,19.95
2018-08-09T07:57:27.041Z,18.62
2018-08-09T07:59:54.080Z,18.37
2018-08-09T08:02:21.124Z,21.55
2018-08-09T08:04:48.173Z,20.40
2018-08-09T08:07:15.226Z,20.35
2018-08-09T08:09:42.274Z,18.55
2018-08-09T08:12:09.339Z,17.62
2018-08-09T08:14:36.471Z,17.67
2018-08-09T08:17:03.524Z,17.50
2018-08-09T08:19:30.774Z,18.33
2018-08-09T08:21:57.828Z,20.10
2018-08-09T08:24:24.977Z,19.17
2018-08-09T08:26:52.020Z,19.05
2018-08-09T08:29:19.068Z,19.05
2018-08-09T08:31:46.123Z,19.83
2018-08-09T08:34:13.166Z,18.55
2018-08-09T08:36:40.317Z,20.17
2018-08-09T08:39:07.468Z,19.25
2018-08-09T08:41:34.594Z,19.92
2018-08-09T08:44:02.076Z,19.50
2018-08-09T08:46:29.126Z,17.70
2018-08-09T08:48:56.182Z,18.92
2018-08-09T08:51:23.638Z,18.80
2018-08-09T08:53:50.683Z,17.42
2018-08-09T08:56:17.729Z,18.55
2018-08-09T08:58:45.290Z,18.65
2018-08-09T09:01:12.441Z,18.73
2018-08-09T09:03:39.489Z,18.55
2018-08-09T09:06:06.949Z,16.77
2018-08-09T09:08:34.100Z,21.17
2018-08-09T09:11:01.154Z,24.52
2018-08-09T09:13:28.199Z,20.75
2018-08-09T09:15:55.349Z,17.83
2018-08-09T09:18:22.501Z,18.10
2018-08-09T09:20:49.519Z,16.45
2018-08-09T09:23:16.600Z,16.58
2018-08-09T09:25:43.644Z,16.58
2018-08-09T09:28:10.692Z,19.35
2018-08-09T09:30:37.746Z,17.08
2018-08-09T09:33:04.789Z,17.35
2018-08-09T09:35:31.838Z,16.95
2018-08-09T09:37:58.892Z,16.67
2018-08-09T09:40:25.935Z,18.52
2018-08-09T09:42:52.984Z,17.35
2018-08-09T09:45:20.038Z,16.10
2018-08-09T09:47:47.081Z,19.60
2018-08-09T09:50:14.234Z,15.15
2018-08-09T09:52:41.297Z,18.12
2018-08-09T09:55:08.432Z,16.33
2018-08-09T09:57:35.484Z,16.48
2018-08-09T10:00:02.527Z,15.88
2018-08-09T10:02:29.541Z,18.67
2018-08-09T10:04:56.631Z,16.90
2018-08-09T10:07:23.710Z,16.92
2018-08-09T10:09:50.932Z,16.60
2018-08-09T10:12:17.975Z,15.80
2018-08-09T10:14:45.043Z,18.42
2018-08-09T10:20:09.334Z,15.85
2018-08-09T10:22:37.716Z,20.25
2018-08-09T10:25:10.296Z,15.75
2018-08-09T10:27:42.231Z,15.68
2018-08-09T10:33:26.709Z,14.82
2018-08-09T10:35:53.881Z,16.55
2018-08-09T10:40:59.349Z,15.10
2018-08-09T10:43:30.803Z,15.02
2018-08-09T10:48:59.048Z,14.73
2018-08-09T10:51:32.978Z,15.18
2018-08-09T10:54:02.814Z,19.02
2018-08-09T10:56:50.821Z,16.33
2018-08-09T10:59:18.220Z,14.95
2018-08-09T11:01:47.815Z,14.90
2018-08-09T11:04:19.281Z,14.25
2018-08-09T11:37:40.446Z,13.02
2018-08-09T11:40:08.169Z,16.55
2018-08-09T12:18:09.265Z,13.55
2018-08-09T12:20:36.336Z,13.18
2018-08-09T12:23:03.653Z,11.95
2018-08-09T12:25:30.699Z,13.77
2018-08-09T12:27:57.854Z,12.88
2018-08-09T12:30:26.182Z,12.70
2018-08-09T12:32:53.176Z,13.20
2018-08-09T12:35:21.248Z,15.13
2018-08-09T12:37:48.295Z,12.85
2018-08-09T12:40:15.351Z,13.20
2018-08-09T12:45:25.852Z,14.73
2018-08-09T12:47:52.975Z,11.60
2018-08-09T12:50:20.848Z,11.73
2018-08-09T12:52:47.938Z,12.32
2018-08-09T12:55:14.940Z,11.70
2018-08-09T12:57:41.993Z,10.82
2018-08-09T13:00:09.061Z,11.63
2018-08-09T13:02:36.084Z,11.98
2018-08-09T13:10:31.263Z,14.10
2018-08-09T13:29:47.247Z,18.45
2018-08-09T13:32:18.847Z,15.48
2018-08-09T13:34:49.814Z,15.82
2018-08-09T13:37:28.076Z,15.02
2018-08-09T14:21:10.136Z,14.02
2018-08-09T14:23:47.521Z,14.23
2018-08-09T14:26:18.471Z,13.43
2018-08-09T14:31:33.861Z,13.98
2018-08-09T14:34:04.500Z,12.95
2018-08-09T14:36:36.351Z,13.55
2018-08-09T14:41:53.997Z,13.18
2018-08-09T14:44:21.975Z,13.43
2018-08-09T14:46:57.903Z,13.05
2018-08-09T14:55:13.247Z,13.43
2018-08-09T15:05:57.959Z,12.75
2018-08-09T15:11:15.720Z,12.73
2018-08-09T15:13:48.353Z,13.07
2018-08-09T15:34:43.396Z,12.35
2018-08-09T15:42:46.653Z,12.80
2018-08-09T15:45:16.191Z,11.68
2018-08-09T15:47:54.743Z,11.52
2018-08-09T15:53:09.792Z,11.57
2018-08-09T15:55:55.788Z,13.68
2018-08-09T17:30:54.297Z,15.07
2018-08-09T17:41:41.877Z,21.90
2018-08-09T17:52:51.692Z,15.40
2018-08-09T17:55:20.527Z,20.27
2018-08-09T18:08:56.203Z,18.37
2018-08-09T18:14:35.052Z,23.83
2018-08-09T18:17:02.099Z,21.25
2018-08-09T18:19:29.158Z,23.62
2018-08-09T18:21:56.302Z,19.12
2018-08-09T18:24:23.347Z,20.80
2018-08-09T18:26:50.566Z,19.27
2018-08-09T18:29:17.756Z,26.35
2018-08-09T18:31:44.801Z,19.65
2018-08-09T18:34:12.258Z,21.30
2018-08-09T18:36:39.306Z,20.95
2018-08-09T18:39:06.457Z,20.12
2018-08-09T18:41:33.513Z,21.67
2018-08-09T18:44:01.478Z,22.83
2018-08-09T18:46:28.530Z,20.92
2018-08-09T18:48:56.498Z,22.13
2018-08-09T18:51:23.652Z,28.75
2018-08-09T18:53:50.694Z,28.23
2018-08-09T18:56:18.357Z,22.90
2018-08-09T18:58:45.509Z,25.55
2018-08-09T19:01:12.763Z,24.40
2018-08-09T19:04:00.373Z,24.70
2018-08-09T19:06:27.445Z,27.05
2018-08-09T19:08:54.694Z,28.33
2018-08-09T19:11:21.847Z,28.17
2018-08-09T19:13:48.898Z,27.30
2018-08-09T19:16:15.943Z,23.98
2018-08-09T19:18:42.991Z,25.42
2018-08-09T19:21:10.038Z,26.30
2018-08-09T19:23:37.087Z,24.70
2018-08-09T19:26:04.241Z,25.10
2018-08-09T19:28:31.364Z,26.87
2018-08-09T19:30:58.438Z,28.98
2018-08-09T19:33:25.705Z,32.08
2018-08-09T19:35:52.953Z,30.23
2018-08-09T19:38:19.994Z,31.75
2018-08-09T19:40:47.042Z,32.90
2018-08-09T19:43:14.786Z,27.13
2018-08-09T19:45:41.961Z,35.72
2018-08-09T19:48:09.016Z,32.97
2018-08-09T19:50:36.060Z,30.23
2018-08-09T19:53:03.105Z,30.20
2018-08-09T19:55:30.259Z,29.48
2018-08-09T19:57:58.127Z,33.72
2018-08-09T20:00:25.383Z,38.92
2018-08-09T20:02:52.420Z,36.58
2018-08-09T20:05:19.575Z,27.17
2018-08-09T20:07:46.625Z,31.65
2018-08-09T20:10:13.678Z,32.78
2018-08-09T20:12:40.723Z,36.38
2018-08-09T20:15:07.873Z,34.08
2018-08-09T20:17:35.132Z,32.90
2018-08-09T20:20:02.461Z,31.23
2018-08-09T20:22:29.503Z,30.33
2018-08-09T20:24:56.586Z,36.10
2018-08-09T20:27:25.062Z,32.20
2018-08-09T20:29:52.523Z,35.83
2018-08-09T20:32:19.571Z,42.78
2018-08-09T20:34:46.616Z,44.92
2018-08-09T20:37:13.768Z,44.80
2018-08-09T20:39:40.816Z,37.55
2018-08-09T20:42:08.070Z,46.55
2018-08-09T20:44:35.300Z,42.15
2018-08-09T20:47:02.373Z,38.47
2018-08-09T20:49:29.502Z,38.10
2018-08-09T20:51:56.673Z,38.15
2018-08-09T20:54:23.825Z,50.78
2018-08-09T20:56:51.355Z,51.10
2018-08-09T20:59:18.541Z,46.45
2018-08-09T21:01:47.843Z,50.80
2018-08-09T21:04:14.994Z,57.03
2018-08-09T21:06:42.244Z,40.05
2018-08-09T21:09:11.930Z,50.15
2018-08-09T21:11:39.002Z,46.37
2018-08-09T21:14:06.255Z,46.22
2018-08-09T21:16:33.304Z,46.60
2018-08-09T21:19:00.359Z,56.95
2018-08-09T21:21:28.529Z,49.70
2018-08-09T21:23:55.580Z,47.33
2018-08-09T21:26:22.829Z,53.28
2018-08-09T21:28:49.842Z,39.58
2018-08-09T21:31:16.930Z,42.20
2018-08-09T21:33:43.975Z,47.62
2018-08-09T21:36:11.030Z,47.42
2018-08-09T21:38:38.073Z,45.08
2018-08-09T21:41:05.332Z,46.92
2018-08-09T21:43:32.376Z,46.95
2018-08-09T21:45:59.426Z,44.20
2018-08-09T21:48:27.598Z,42.35
2018-08-09T21:50:55.472Z,37.55
2018-08-09T21:53:22.624Z,37.63
2018-08-09T21:55:51.099Z,38.78
2018-08-09T21:58:18.153Z,38.05
2018-08-09T22:00:46.425Z,33.92
2018-08-09T22:03:13.474Z,35.00
2018-08-09T22:05:57.033Z,35.70
2018-08-09T22:08:43.008Z,30.15
2018-08-09T22:11:27.869Z,27.25
2018-08-09T22:14:11.201Z,27.08
2018-08-09T22:16:54.939Z,25.80
2018-08-09T22:19:44.527Z,26.83
2018-08-09T22:22:20.587Z,24.85
2018-08-09T22:24:53.665Z,23.85
2018-08-09T22:27:20.721Z,25.52
2018-08-09T22:29:47.769Z,23.10
2018-08-09T22:32:18.190Z,20.83
2018-08-09T22:34:49.029Z,20.88
2018-08-09T22:37:16.180Z,21.60
2018-08-09T22:39:43.228Z,21.75
2018-08-09T22:42:10.252Z,21.83
2018-08-09T22:44:48.804Z,25.05
2018-08-09T22:47:16.664Z,21.52
2018-08-09T22:49:49.038Z,21.20
2018-08-09T22:52:18.340Z,21.12
2018-08-09T22:54:45.392Z,20.77
2018-08-09T22:57:12.435Z,20.65
2018-08-09T22:59:39.587Z,21.05
2018-08-09T23:02:06.637Z,20.90
2018-08-09T23:04:34.401Z,22.98
2018-08-09T23:07:10.234Z,22.27
2018-08-09T23:09:44.163Z,24.40
2018-08-09T23:12:11.213Z,26.90
2018-08-09T23:14:38.266Z,25.75
2018-08-09T23:17:05.310Z,26.83
2018-08-09T23:19:35.026Z,27.98
2018-08-09T23:22:02.177Z,26.98
2018-08-09T23:24:29.220Z,27.42
2018-08-09T23:26:56.270Z,30.05
2018-08-09T23:29:23.323Z,30.27
2018-08-09T23:31:56.311Z,29.17
2018-08-09T23:34:25.815Z,29.08
2018-08-09T23:36:52.842Z,28.45
2018-08-09T23:39:19.915Z,27.35
2018-08-09T23:41:46.958Z,27.87
2018-08-09T23:44:14.116Z,28.87
2018-08-09T23:46:43.922Z,24.73
2018-08-09T23:49:11.381Z,23.12
2018-08-09T23:51:43.142Z,27.67
2018-08-09T23:54:10.159Z,25.35
2018-08-09T23:56:37.238Z,24.50
2018-08-09T23:59:05.514Z,24.80
